Arklow Rogue — EIGD — position and weather

sailwx.info

Track history (hours):
 
Tides and Currents Weather Stations Pressure Air Temp Water Temp Dewpoint Dewpoint Depression Visibility Wind Speed Wind Dir Waves Ship Positions

Arklow Rogue

Last reported at 2014-Jul-19 13:33 UTC. Time now 2014-Jul-22 09:18 UTC.
Position N 52°32' W 009°46'.

Length 90 m; draft 3.4 m.

Type: Cargo ship. MMSI: 250000960.

Date/timePositionNaut miles runAvg speedWind from/ knotsBaromVisibWave heightAir tempDewpointWater temp
2014-Jul-19 13:33N 52°32' W 009°46'1211.8
2014-Jul-19 12:33N 52°26' W 010°02'1212.1
2014-Jul-19 11:32N 52°18' W 010°17'1212.3
2014-Jul-19 10:33N 52°10' W 010°32'1411.3
2014-Jul-19 09:17N 51°55' W 010°31'4311.4
2014-Jul-19 05:32N 51°21' W 009°51'23810.2
2014-Jul-18 06:12N 50°04' W 003°54'1012.3
2014-Jul-18 05:25N 50°06' W 003°39'6410.4
2014-Jul-17 23:16N 50°18' W 002°01'6 8.4
2014-Jul-17 22:32N 50°19' W 001°51'10 9.5
2014-Jul-17 21:30N 50°21' W 001°36'2812.3
2014-Jul-17 19:12N 50°26' W 000°52'1214.3
2014-Jul-17 18:22N 50°28' W 000°34'1413.7
2014-Jul-17 17:21N 50°31' W 000°12'1013.0
2014-Jul-17 16:33N 50°33' E 000°04'1412.2
2014-Jul-17 15:22N 50°36' E 000°26'911.2
2014-Jul-17 14:33N 50°40' E 000°39'1110.8
2014-Jul-17 13:34N 50°46' E 000°53'1111.2
2014-Jul-17 12:34N 50°53' E 001°06'1313.2
2014-Jul-17 11:34N 51°02' E 001°23'1514.8
2014-Jul-17 10:33N 51°12' E 001°41'1413.7
2014-Jul-17 09:33N 51°23' E 001°52'1211.7
2014-Jul-17 08:34N 51°33' E 002°03'1110.8
2014-Jul-17 07:34N 51°41' E 002°15'1110.1
2014-Jul-17 06:30N 51°48' E 002°27'29 9.9
2014-Jul-17 03:34N 52°11' E 002°57'1111.2
2014-Jul-17 02:33N 52°20' E 003°08'1312.5
2014-Jul-17 01:33N 52°30' E 003°21'1312.9
2014-Jul-17 00:32N 52°40' E 003°34'1313.0
2014-Jul-16 23:33N 52°50' E 003°47'1312.2
2014-Jul-16 22:32N 52°59' E 004°01'1111.2
2014-Jul-16 21:33N 53°07' E 004°15'11 9.9
2014-Jul-16 20:29N 53°14' E 004°27'18 9.4
2014-Jul-16 18:33N 53°30' E 004°43'1211.5
2014-Jul-16 17:33N 53°33' E 005°01'1312.6
2014-Jul-16 16:33N 53°38' E 005°21'1312.6
2014-Jul-16 15:33N 53°42' E 005°42'6810.6
2014-Jul-16 09:07N 53°59' E 007°33'6 9.7
2014-Jul-16 08:32N 53°57' E 007°42'1010.1
2014-Jul-16 07:33N 53°52' E 007°57'1413.7
2014-Jul-16 06:33N 53°44' E 008°15'1514.9
2014-Jul-16 05:33N 53°33' E 008°33'3 3.3
2014-Jul-16 04:32N 53°30' E 008°31'0 0.0
2014-Jul-16 03:32N 53°30' E 008°31'0 0.0
2014-Jul-16 02:32N 53°30' E 008°31'0 0.0
2014-Jul-16 01:32N 53°30' E 008°31'0 0.0
2014-Jul-16 00:32N 53°30' E 008°31'0 0.0
2014-Jul-15 23:32N 53°30' E 008°31'0 0.0
2014-Jul-15 22:32N 53°30' E 008°31'0 0.0
2014-Jul-15 21:32N 53°30' E 008°31'0 0.0
2014-Jul-15 20:32N 53°30' E 008°31'0 0.0
2014-Jul-15 19:32N 53°30' E 008°31'0 0.0
2014-Jul-15 18:32N 53°30' E 008°31'0 0.0
2014-Jul-15 17:32N 53°30' E 008°31'0 0.0
2014-Jul-15 16:32N 53°30' E 008°31'3 3.0
2014-Jul-15 15:33N 53°32' E 008°34'1211.9
2014-Jul-15 14:33N 53°41' E 008°21'1313.1
2014-Jul-15 13:33N 53°50' E 008°04'1413.2
2014-Jul-15 12:28N 53°53' E 007°40'4714.6
2014-Jul-15 09:14N 53°44' E 006°22'1014.7
2014-Jul-15 08:34N 53°41' E 006°06'1514.5
2014-Jul-15 07:33N 53°36' E 005°43'1514.8
2014-Jul-15 06:33N 53°32' E 005°19'1514.8
2014-Jul-15 05:34N 53°26' E 004°56'4213.4
2014-Jul-15 02:26N 52°52' E 004°16'2512.7
2014-Jul-15 00:29N 52°31' E 003°54'1212.3
2014-Jul-14 23:32N 52°20' E 003°52'1212.2
2014-Jul-14 22:33N 52°08' E 003°54'9 9.5
2014-Jul-14 21:33N 51°60' E 004°02'1414.3
2014-Jul-14 20:33N 51°51' E 004°21'1111.3
2014-Jul-14 19:33N 51°47' E 004°38'6 2.4
2014-Jul-14 17:16N 51°41' E 004°36'0 0.0
2014-Jul-14 15:22N 51°41' E 004°36'0 0.0
2014-Jul-14 12:10N 51°41' E 004°36'0 0.0
2014-Jul-14 10:07N 51°41' E 004°36'0 0.0
2014-Jul-14 08:28N 51°41' E 004°36'0 0.0
2014-Jul-14 06:13N 51°41' E 004°36'0 0.0
2014-Jul-14 04:31N 51°41' E 004°36'0 0.0
2014-Jul-14 02:25N 51°41' E 004°36'0 0.0
2014-Jul-14 01:28N 51°41' E 004°36'0 0.0
2014-Jul-13 21:25N 51°41' E 004°36'0 0.0
2014-Jul-13 19:10N 51°41' E 004°36'0 0.0
2014-Jul-13 17:28N 51°41' E 004°36'0 0.0
2014-Jul-13 16:28N 51°41' E 004°36'0 0.0
2014-Jul-13 15:28N 51°41' E 004°36'0 0.0
2014-Jul-13 14:16N 51°41' E 004°36'0 0.0
2014-Jul-13 12:28N 51°41' E 004°36'0 0.0
2014-Jul-13 10:16N 51°41' E 004°36'0 0.0
2014-Jul-13 07:31N 51°41' E 004°36'0 0.0
2014-Jul-13 04:16N 51°41' E 004°36'0 0.0
2014-Jul-13 03:16N 51°41' E 004°36'0 0.0
2014-Jul-13 01:22N 51°41' E 004°36'0 0.0
2014-Jul-12 23:28N 51°41' E 004°36'0 0.0
2014-Jul-12 22:16N 51°41' E 004°36'0 0.0
2014-Jul-12 21:28N 51°41' E 004°36'0 0.0
2014-Jul-12 20:16N 51°41' E 004°36'0 0.0
2014-Jul-12 16:22N 51°41' E 004°36'3 3.1
2014-Jul-12 15:33N 51°44' E 004°38'8 8.4
2014-Jul-12 14:33N 51°50' E 004°29'10 9.6
2014-Jul-12 13:33N 51°55' E 004°15'1312.6
2014-Jul-12 12:33N 52°00' E 003°57'5510.9
2014-Jul-12 07:33N 52°52' E 003°29'1312.7
2014-Jul-12 06:33N 53°05' E 003°29'1312.2
2014-Jul-12 05:27N 53°18' E 003°29'1211.6
2014-Jul-12 04:23N 53°30' E 003°34'  
Track history (hours):
 
Tides and Currents Weather Stations Pressure Air Temp Water Temp Dewpoint Dewpoint Depression Visibility Wind Speed Wind Dir Waves Ship Positions

Arklow Rogue

Last reported at 2014-Jul-19 13:33 UTC. Time now 2014-Jul-22 09:18 UTC.
Position N 52°32' W 009°46'.

Length 90 m; draft 3.4 m.

Type: Cargo ship. MMSI: 250000960.

Date/timePositionNaut miles runAvg speedWind from/ knotsBaromVisibWave heightAir tempDewpointWater temp
2014-Jul-19 13:33N 52°32' W 009°46'1211.8
2014-Jul-19 12:33N 52°26' W 010°02'1212.1
2014-Jul-19 11:32N 52°18' W 010°17'1212.3
2014-Jul-19 10:33N 52°10' W 010°32'1411.3
2014-Jul-19 09:17N 51°55' W 010°31'4311.4
2014-Jul-19 05:32N 51°21' W 009°51'23810.2
2014-Jul-18 06:12N 50°04' W 003°54'1012.3
2014-Jul-18 05:25N 50°06' W 003°39'6410.4
2014-Jul-17 23:16N 50°18' W 002°01'6 8.4
2014-Jul-17 22:32N 50°19' W 001°51'10 9.5
2014-Jul-17 21:30N 50°21' W 001°36'2812.3
2014-Jul-17 19:12N 50°26' W 000°52'1214.3
2014-Jul-17 18:22N 50°28' W 000°34'1413.7
2014-Jul-17 17:21N 50°31' W 000°12'1013.0
2014-Jul-17 16:33N 50°33' E 000°04'1412.2
2014-Jul-17 15:22N 50°36' E 000°26'911.2
2014-Jul-17 14:33N 50°40' E 000°39'1110.8
2014-Jul-17 13:34N 50°46' E 000°53'1111.2
2014-Jul-17 12:34N 50°53' E 001°06'1313.2
2014-Jul-17 11:34N 51°02' E 001°23'1514.8
2014-Jul-17 10:33N 51°12' E 001°41'1413.7
2014-Jul-17 09:33N 51°23' E 001°52'1211.7
2014-Jul-17 08:34N 51°33' E 002°03'1110.8
2014-Jul-17 07:34N 51°41' E 002°15'1110.1
2014-Jul-17 06:30N 51°48' E 002°27'29 9.9
2014-Jul-17 03:34N 52°11' E 002°57'1111.2
2014-Jul-17 02:33N 52°20' E 003°08'1312.5
2014-Jul-17 01:33N 52°30' E 003°21'1312.9
2014-Jul-17 00:32N 52°40' E 003°34'1313.0
2014-Jul-16 23:33N 52°50' E 003°47'1312.2
2014-Jul-16 22:32N 52°59' E 004°01'1111.2
2014-Jul-16 21:33N 53°07' E 004°15'11 9.9
2014-Jul-16 20:29N 53°14' E 004°27'18 9.4
2014-Jul-16 18:33N 53°30' E 004°43'1211.5
2014-Jul-16 17:33N 53°33' E 005°01'1312.6
2014-Jul-16 16:33N 53°38' E 005°21'1312.6
2014-Jul-16 15:33N 53°42' E 005°42'6810.6
2014-Jul-16 09:07N 53°59' E 007°33'6 9.7
2014-Jul-16 08:32N 53°57' E 007°42'1010.1
2014-Jul-16 07:33N 53°52' E 007°57'1413.7
2014-Jul-16 06:33N 53°44' E 008°15'1514.9
2014-Jul-16 05:33N 53°33' E 008°33'3 3.3
2014-Jul-16 04:32N 53°30' E 008°31'0 0.0
2014-Jul-16 03:32N 53°30' E 008°31'0 0.0
2014-Jul-16 02:32N 53°30' E 008°31'0 0.0
2014-Jul-16 01:32N 53°30' E 008°31'0 0.0
2014-Jul-16 00:32N 53°30' E 008°31'0 0.0
2014-Jul-15 23:32N 53°30' E 008°31'0 0.0
2014-Jul-15 22:32N 53°30' E 008°31'0 0.0
2014-Jul-15 21:32N 53°30' E 008°31'0 0.0
2014-Jul-15 20:32N 53°30' E 008°31'0 0.0
2014-Jul-15 19:32N 53°30' E 008°31'0 0.0
2014-Jul-15 18:32N 53°30' E 008°31'0 0.0
2014-Jul-15 17:32N 53°30' E 008°31'0 0.0
2014-Jul-15 16:32N 53°30' E 008°31'3 3.0
2014-Jul-15 15:33N 53°32' E 008°34'1211.9
2014-Jul-15 14:33N 53°41' E 008°21'1313.1
2014-Jul-15 13:33N 53°50' E 008°04'1413.2
2014-Jul-15 12:28N 53°53' E 007°40'4714.6
2014-Jul-15 09:14N 53°44' E 006°22'1014.7
2014-Jul-15 08:34N 53°41' E 006°06'1514.5
2014-Jul-15 07:33N 53°36' E 005°43'1514.8
2014-Jul-15 06:33N 53°32' E 005°19'1514.8
2014-Jul-15 05:34N 53°26' E 004°56'4213.4
2014-Jul-15 02:26N 52°52' E 004°16'2512.7
2014-Jul-15 00:29N 52°31' E 003°54'1212.3
2014-Jul-14 23:32N 52°20' E 003°52'1212.2
2014-Jul-14 22:33N 52°08' E 003°54'9 9.5
2014-Jul-14 21:33N 51°60' E 004°02'1414.3
2014-Jul-14 20:33N 51°51' E 004°21'1111.3
2014-Jul-14 19:33N 51°47' E 004°38'6 2.4
2014-Jul-14 17:16N 51°41' E 004°36'0 0.0
2014-Jul-14 15:22N 51°41' E 004°36'0 0.0
2014-Jul-14 12:10N 51°41' E 004°36'0 0.0
2014-Jul-14 10:07N 51°41' E 004°36'0 0.0
2014-Jul-14 08:28N 51°41' E 004°36'0 0.0
2014-Jul-14 06:13N 51°41' E 004°36'0 0.0
2014-Jul-14 04:31N 51°41' E 004°36'0 0.0
2014-Jul-14 02:25N 51°41' E 004°36'0 0.0
2014-Jul-14 01:28N 51°41' E 004°36'0 0.0
2014-Jul-13 21:25N 51°41' E 004°36'0 0.0
2014-Jul-13 19:10N 51°41' E 004°36'0 0.0
2014-Jul-13 17:28N 51°41' E 004°36'0 0.0
2014-Jul-13 16:28N 51°41' E 004°36'0 0.0
2014-Jul-13 15:28N 51°41' E 004°36'0 0.0
2014-Jul-13 14:16N 51°41' E 004°36'0 0.0
2014-Jul-13 12:28N 51°41' E 004°36'0 0.0
2014-Jul-13 10:16N 51°41' E 004°36'0 0.0
2014-Jul-13 07:31N 51°41' E 004°36'0 0.0
2014-Jul-13 04:16N 51°41' E 004°36'0 0.0
2014-Jul-13 03:16N 51°41' E 004°36'0 0.0
2014-Jul-13 01:22N 51°41' E 004°36'0 0.0
2014-Jul-12 23:28N 51°41' E 004°36'0 0.0
2014-Jul-12 22:16N 51°41' E 004°36'0 0.0
2014-Jul-12 21:28N 51°41' E 004°36'0 0.0
2014-Jul-12 20:16N 51°41' E 004°36'0 0.0
2014-Jul-12 16:22N 51°41' E 004°36'3 3.1
2014-Jul-12 15:33N 51°44' E 004°38'8 8.4
2014-Jul-12 14:33N 51°50' E 004°29'10 9.6
2014-Jul-12 13:33N 51°55' E 004°15'1312.6
2014-Jul-12 12:33N 52°00' E 003°57'5510.9
2014-Jul-12 07:33N 52°52' E 003°29'1312.7
2014-Jul-12 06:33N 53°05' E 003°29'1312.2
2014-Jul-12 05:27N 53°18' E 003°29'1211.6
2014-Jul-12 04:23N 53°30' E 003°34'  

Dump ship's entire track history